createdAt,value
2023-05-02T00:01:32.155Z,96291.00
2023-05-02T00:05:40.698Z,96294.00
2023-05-02T00:09:47.038Z,96293.00
2023-05-02T00:13:52.676Z,96292.00
2023-05-02T00:17:56.949Z,96290.00
2023-05-02T00:22:00.109Z,96292.00
2023-05-02T00:26:05.012Z,96291.00
2023-05-02T00:30:09.552Z,96289.00
2023-05-02T00:34:13.726Z,96288.00
2023-05-02T00:38:16.941Z,96289.00
2023-05-02T00:42:21.745Z,96288.00
2023-05-02T00:46:24.940Z,96292.00
2023-05-02T00:50:50.167Z,96291.00
2023-05-02T00:54:53.502Z,96293.00
2023-05-02T00:59:01.136Z,96295.00
2023-05-02T01:03:13.360Z,96293.00
2023-05-02T01:07:34.694Z,96306.00
2023-05-02T01:11:45.786Z,96302.00
2023-05-02T01:15:54.511Z,96307.00
2023-05-02T01:20:06.380Z,96312.00
2023-05-02T01:24:26.358Z,96321.00
2023-05-02T01:28:37.299Z,96308.00
2023-05-02T01:32:45.948Z,96306.00
2023-05-02T01:37:06.023Z,96310.00
2023-05-02T01:41:10.854Z,96316.00
2023-05-02T01:45:14.623Z,96317.00
2023-05-02T01:49:23.316Z,96324.00
2023-05-02T01:53:32.152Z,96329.00
2023-05-02T01:57:37.931Z,96325.00
2023-05-02T02:01:43.695Z,96326.00
2023-05-02T02:05:57.007Z,96332.00
2023-05-02T02:10:05.018Z,96344.00
2023-05-02T02:14:14.506Z,96346.00
2023-05-02T02:18:23.077Z,96345.00
2023-05-02T02:22:33.986Z,96342.00
2023-05-02T02:26:39.967Z,96331.00
2023-05-02T02:30:44.194Z,96340.00
2023-05-02T02:34:48.150Z,96338.00
2023-05-02T02:39:00.993Z,96342.00
2023-05-02T02:43:21.494Z,96340.00
2023-05-02T02:47:32.020Z,96344.00
2023-05-02T02:51:45.865Z,96342.00
2023-05-02T02:55:58.953Z,96351.00
2023-05-02T03:00:10.831Z,96349.00
2023-05-02T03:04:17.410Z,96356.00
2023-05-02T03:08:23.457Z,96358.00
2023-05-02T03:12:27.883Z,96357.00
2023-05-02T03:16:38.317Z,96357.00
2023-05-02T03:20:44.039Z,96352.00
2023-05-02T03:24:47.080Z,96351.00
2023-05-02T03:28:51.703Z,96363.00
2023-05-02T03:32:58.970Z,96363.00
2023-05-02T03:37:01.997Z,96358.00
2023-05-02T03:41:05.975Z,96357.00
2023-05-02T03:45:11.608Z,96359.00
2023-05-02T03:49:15.184Z,96364.00
2023-05-02T03:53:22.967Z,96364.00
2023-05-02T03:57:26.924Z,96373.00
2023-05-02T04:01:31.719Z,96376.00
2023-05-02T04:05:34.735Z,96380.00
2023-05-02T04:09:37.809Z,96386.00
2023-05-02T04:13:40.914Z,96387.00
2023-05-02T04:17:46.624Z,96384.00
2023-05-02T04:21:51.509Z,96391.00
2023-05-02T04:25:57.930Z,96403.00
2023-05-02T04:30:03.793Z,96398.00
2023-05-02T04:34:10.736Z,96401.00
2023-05-02T04:38:14.125Z,96417.00
2023-05-02T04:42:17.139Z,96416.00
2023-05-02T04:46:20.396Z,96425.00
2023-05-02T04:50:24.798Z,96429.00
2023-05-02T04:54:28.119Z,96437.00
2023-05-02T04:58:35.181Z,96445.00
2023-05-02T05:02:39.097Z,96456.00
2023-05-02T05:06:49.576Z,96456.00
2023-05-02T05:10:53.021Z,96467.00
2023-05-02T05:14:56.035Z,96462.00
2023-05-02T05:18:59.256Z,96462.00
2023-05-02T05:23:03.776Z,96472.00
2023-05-02T05:27:07.318Z,96470.00
2023-05-02T05:31:11.394Z,96479.00
2023-05-02T05:35:17.445Z,96476.00
2023-05-02T05:39:28.585Z,96476.00
2023-05-02T05:43:36.634Z,96488.00
2023-05-02T05:47:41.142Z,96485.00
2023-05-02T05:51:44.357Z,96491.00
2023-05-02T05:55:50.726Z,96492.00
2023-05-02T05:59:53.797Z,96499.00
2023-05-02T06:03:57.206Z,96500.00
2023-05-02T06:08:00.793Z,96516.00
2023-05-02T06:12:05.384Z,96516.00
2023-05-02T06:16:08.967Z,96518.00
2023-05-02T06:20:18.632Z,96517.00
2023-05-02T06:24:22.379Z,96516.00
2023-05-02T06:28:27.132Z,96524.00
2023-05-02T06:32:34.799Z,96517.00
2023-05-02T06:36:42.268Z,96533.00
2023-05-02T06:40:49.022Z,96533.00
2023-05-02T06:44:54.149Z,96532.00
2023-05-02T06:48:57.485Z,96551.00
2023-05-02T06:53:03.031Z,96542.00
2023-05-02T06:57:06.511Z,96552.00
2023-05-02T07:01:17.185Z,96558.00
2023-05-02T07:05:20.234Z,96554.00
2023-05-02T07:09:28.557Z,96558.00
2023-05-02T07:13:34.021Z,96575.00
2023-05-02T07:17:38.641Z,96579.00
2023-05-02T07:21:44.714Z,96580.00
2023-05-02T07:25:49.010Z,96588.00
2023-05-02T07:29:52.154Z,96589.00
2023-05-02T07:33:59.230Z,96591.00
2023-05-02T07:38:05.355Z,96591.00
2023-05-02T07:42:08.980Z,96604.00
2023-05-02T07:46:14.234Z,96598.00
2023-05-02T07:50:21.452Z,96600.00
2023-05-02T07:54:27.691Z,96609.00
2023-05-02T07:58:33.908Z,96609.00
2023-05-02T08:02:40.119Z,96616.00
2023-05-02T08:06:45.769Z,96622.00
2023-05-02T08:10:51.364Z,96628.00
2023-05-02T08:14:54.636Z,96631.00
2023-05-02T08:18:58.780Z,96637.00
2023-05-02T08:23:04.857Z,96638.00
2023-05-02T08:27:10.993Z,96646.00
2023-05-02T08:31:16.477Z,96646.00
2023-05-02T08:35:19.787Z,96656.00
2023-05-02T08:39:24.254Z,96658.00
2023-05-02T08:43:27.624Z,96653.00
2023-05-02T08:47:34.351Z,96661.00
2023-05-02T08:51:39.456Z,96660.00
2023-05-02T08:55:46.296Z,96666.00
2023-05-02T08:59:53.028Z,96669.00
2023-05-02T09:03:59.774Z,96678.00
2023-05-02T09:08:03.445Z,96689.00
2023-05-02T09:12:07.995Z,96692.00
2023-05-02T09:16:14.689Z,96695.00
2023-05-02T09:20:21.370Z,96708.00
2023-05-02T09:24:27.483Z,96707.00
2023-05-02T09:28:46.083Z,96708.00
2023-05-02T09:32:51.365Z,96710.00
2023-05-02T09:36:55.080Z,96718.00
2023-05-02T09:41:03.535Z,96715.00
2023-05-02T09:45:09.442Z,96718.00
2023-05-02T09:49:15.218Z,96712.00
2023-05-02T09:53:18.646Z,96724.00
2023-05-02T09:57:40.313Z,96720.00
2023-05-02T10:01:44.844Z,96730.00
2023-05-02T10:05:54.080Z,96724.00
2023-05-02T10:10:03.676Z,96731.00
2023-05-02T10:14:09.033Z,96733.00
2023-05-02T10:18:19.559Z,96731.00
2023-05-02T10:22:25.080Z,96723.00
2023-05-02T10:26:29.364Z,96729.00
2023-05-02T10:30:36.539Z,96732.00
2023-05-02T10:34:42.807Z,96731.00
2023-05-02T10:38:51.553Z,96727.00
2023-05-02T10:42:55.836Z,96718.00
2023-05-02T10:46:59.291Z,96724.00
2023-05-02T10:51:04.255Z,96724.00
2023-05-02T10:55:23.341Z,96715.00
2023-05-02T10:59:35.723Z,96727.00
2023-05-02T11:03:58.326Z,96719.00
2023-05-02T11:08:33.638Z,96725.00
2023-05-02T11:12:48.755Z,96719.00
2023-05-02T11:17:12.236Z,96722.00
2023-05-02T11:21:43.833Z,96722.00
2023-05-02T11:25:51.697Z,96726.00
2023-05-02T11:29:55.389Z,96718.00
2023-05-02T11:33:58.754Z,96710.00
2023-05-02T11:38:04.772Z,96713.00
2023-05-02T11:42:09.355Z,96706.00
2023-05-02T11:46:15.357Z,96707.00
2023-05-02T11:50:19.509Z,96698.00
2023-05-02T11:54:23.016Z,96707.00
2023-05-02T11:58:31.243Z,96714.00
2023-05-02T12:02:40.400Z,96705.00
2023-05-02T12:06:56.786Z,96711.00
2023-05-02T12:11:00.101Z,96707.00
2023-05-02T12:15:12.688Z,96708.00
2023-05-02T12:19:18.049Z,96710.00
2023-05-02T12:23:22.190Z,96716.00
2023-05-02T12:27:26.076Z,96713.00
2023-05-02T12:31:32.394Z,96715.00
2023-05-02T12:35:38.659Z,96713.00
2023-05-02T12:39:43.024Z,96718.00
2023-05-02T12:43:48.588Z,96720.00
2023-05-02T12:47:57.480Z,96711.00
2023-05-02T12:52:01.089Z,96703.00
2023-05-02T12:56:06.079Z,96698.00
2023-05-02T13:00:10.980Z,96707.00
2023-05-02T13:04:15.721Z,96705.00
2023-05-02T13:08:18.881Z,96705.00
2023-05-02T13:12:23.546Z,96709.00
2023-05-02T13:16:27.328Z,96703.00
2023-05-02T13:20:34.873Z,96703.00
2023-05-02T13:24:39.665Z,96706.00
2023-05-02T13:28:42.805Z,96701.00
2023-05-02T13:32:47.408Z,96699.00
2023-05-02T13:36:52.142Z,96701.00
2023-05-02T13:40:57.088Z,96700.00
2023-05-02T13:45:00.532Z,96695.00
2023-05-02T13:49:06.013Z,96698.00
2023-05-02T13:53:11.492Z,96700.00
2023-05-02T13:57:14.568Z,96688.00
2023-05-02T14:01:17.891Z,96698.00
2023-05-02T14:05:23.833Z,96704.00
2023-05-02T14:09:28.323Z,96713.00
2023-05-02T14:13:31.473Z,96702.00
2023-05-02T14:17:34.536Z,96714.00
2023-05-02T14:21:42.129Z,96713.00
2023-05-02T14:25:51.312Z,96709.00
2023-05-02T14:29:54.584Z,96701.00
2023-05-02T14:33:57.725Z,96710.00
2023-05-02T14:38:03.858Z,96708.00
2023-05-02T14:42:08.344Z,96710.00
2023-05-02T14:46:13.777Z,96722.00
2023-05-02T14:50:19.916Z,96725.00
2023-05-02T14:54:30.396Z,96740.00
2023-05-02T14:58:38.667Z,96767.00
2023-05-02T15:02:42.168Z,96765.00
2023-05-02T15:06:48.332Z,96762.00
2023-05-02T15:10:55.907Z,96768.00
2023-05-02T15:15:00.398Z,96766.00
2023-05-02T15:19:07.076Z,96778.00
2023-05-02T15:23:12.590Z,96774.00
2023-05-02T15:27:15.891Z,96771.00
2023-05-02T15:31:20.351Z,96786.00
2023-05-02T15:35:23.457Z,96781.00
2023-05-02T15:39:30.576Z,96784.00
2023-05-02T15:43:33.594Z,96794.00
2023-05-02T15:47:38.184Z,96784.00
2023-05-02T15:51:43.933Z,96789.00
2023-05-02T15:55:49.967Z,96786.00
2023-05-02T15:59:54.103Z,96791.00
2023-05-02T16:03:58.603Z,96793.00
2023-05-02T16:08:01.806Z,96800.00
2023-05-02T16:12:11.555Z,96807.00
2023-05-02T16:16:18.725Z,96810.00
2023-05-02T16:20:23.349Z,96814.00
2023-05-02T16:24:26.462Z,96814.00
2023-05-02T16:28:33.828Z,96824.00
2023-05-02T16:32:37.333Z,96815.00
2023-05-02T16:36:44.107Z,96802.00
2023-05-02T16:40:47.173Z,96807.00
2023-05-02T16:44:51.309Z,96809.00
2023-05-02T16:48:57.538Z,96809.00
2023-05-02T16:53:02.128Z,96808.00
2023-05-02T16:57:07.294Z,96807.00
2023-05-02T17:01:10.658Z,96809.00
2023-05-02T17:05:16.391Z,96816.00
2023-05-02T17:09:23.135Z,96820.00
2023-05-02T17:13:33.277Z,96817.00
2023-05-02T17:17:37.377Z,96824.00
2023-05-02T17:21:41.084Z,96815.00
2023-05-02T17:25:46.809Z,96821.00
2023-05-02T17:29:53.657Z,96830.00
2023-05-02T17:33:57.179Z,96824.00
2023-05-02T17:38:08.290Z,96834.00
2023-05-02T17:42:15.334Z,96835.00
2023-05-02T17:46:18.421Z,96835.00
2023-05-02T17:50:21.733Z,96844.00
2023-05-02T17:54:25.394Z,96843.00
2023-05-02T17:58:31.984Z,96849.00
2023-05-02T18:02:42.011Z,96855.00
2023-05-02T18:06:47.892Z,96857.00
2023-05-02T18:10:51.658Z,96856.00
2023-05-02T18:14:58.908Z,96866.00
2023-05-02T18:19:05.373Z,96869.00
2023-05-02T18:23:10.324Z,96874.00
2023-05-02T18:27:13.429Z,96875.00
2023-05-02T18:31:19.329Z,96881.00
2023-05-02T18:35:23.112Z,96878.00
2023-05-02T18:39:27.649Z,96888.00
2023-05-02T18:43:30.697Z,96896.00
2023-05-02T18:47:37.944Z,96904.00
2023-05-02T18:51:43.143Z,96910.00
2023-05-02T18:55:47.176Z,96911.00
2023-05-02T18:59:50.562Z,96922.00
2023-05-02T19:04:00.560Z,96920.00
2023-05-02T19:08:06.160Z,96931.00
2023-05-02T19:12:09.524Z,96934.00
2023-05-02T19:16:15.640Z,96936.00
2023-05-02T19:20:25.263Z,96937.00
2023-05-02T19:24:30.244Z,96943.00
2023-05-02T19:28:37.547Z,96952.00
2023-05-02T19:32:43.384Z,96954.00
2023-05-02T19:36:48.159Z,96964.00
2023-05-02T19:40:53.403Z,96976.00
2023-05-02T19:44:56.718Z,96976.00
2023-05-02T19:49:03.024Z,96985.00
2023-05-02T19:53:08.626Z,96986.00
2023-05-02T19:57:13.533Z,96996.00
2023-05-02T20:01:17.985Z,96989.00
2023-05-02T20:05:21.403Z,97001.00
2023-05-02T20:09:28.238Z,97004.00
2023-05-02T20:13:37.540Z,96991.00
2023-05-02T20:17:42.146Z,97003.00
2023-05-02T20:21:46.664Z,96996.00
2023-05-02T20:25:55.124Z,96999.00
2023-05-02T20:30:01.321Z,97000.00
2023-05-02T20:34:08.426Z,97007.00
2023-05-02T20:38:12.911Z,97006.00
2023-05-02T20:42:23.158Z,97009.00
2023-05-02T20:46:27.664Z,97014.00
2023-05-02T20:50:33.867Z,97016.00
2023-05-02T20:54:37.889Z,97021.00
2023-05-02T20:58:43.157Z,97019.00
2023-05-02T21:02:46.115Z,97024.00
2023-05-02T21:06:49.047Z,97021.00
2023-05-02T21:10:53.321Z,97025.00
2023-05-02T21:15:02.293Z,97024.00
2023-05-02T21:19:05.103Z,97022.00
2023-05-02T21:23:11.257Z,97028.00
2023-05-02T21:27:16.651Z,97018.00
2023-05-02T21:31:25.919Z,97030.00
2023-05-02T21:35:33.972Z,97034.00
2023-05-02T21:39:41.497Z,97024.00
2023-05-02T21:43:46.156Z,97030.00
2023-05-02T21:47:50.426Z,97027.00
2023-05-02T21:51:53.279Z,97030.00
2023-05-02T21:55:56.273Z,97032.00
2023-05-02T21:59:59.868Z,97031.00
2023-05-02T22:04:04.208Z,97031.00
2023-05-02T22:08:11.281Z,97032.00
2023-05-02T22:12:17.135Z,97032.00
2023-05-02T22:16:19.944Z,97026.00
2023-05-02T22:20:28.040Z,97024.00
2023-05-02T22:24:36.231Z,97023.00
2023-05-02T22:28:41.108Z,97029.00
2023-05-02T22:32:43.890Z,97022.00
2023-05-02T22:36:48.035Z,97025.00
2023-05-02T22:40:51.105Z,97024.00
2023-05-02T22:44:55.494Z,97024.00
2023-05-02T22:48:58.765Z,97020.00
2023-05-02T22:53:16.092Z,97029.00
2023-05-02T22:57:19.181Z,97027.00
2023-05-02T23:01:22.048Z,97032.00
2023-05-02T23:05:29.381Z,97032.00
2023-05-02T23:09:33.520Z,97024.00
2023-05-02T23:13:36.721Z,97027.00
2023-05-02T23:17:40.995Z,97034.00
2023-05-02T23:21:44.232Z,97039.00
2023-05-02T23:25:48.935Z,97041.00
2023-05-02T23:29:52.053Z,97049.00
2023-05-02T23:33:56.419Z,97038.00
2023-05-02T23:38:00.773Z,97037.00
2023-05-02T23:42:05.215Z,97036.00
2023-05-02T23:46:13.903Z,97042.00
2023-05-02T23:50:19.069Z,97036.00
2023-05-02T23:54:33.776Z,97038.00
2023-05-02T23:58:38.350Z,97038.00
